sensor_id;sensor_type;location;lat;lon;timestamp;temperature;humidity
33903;DHT22;20194;50.950;5.346;2024-03-02T00:00:07;9.30;90.80
33903;DHT22;20194;50.950;5.346;2024-03-02T00:02:45;9.10;93.20
33903;DHT22;20194;50.950;5.346;2024-03-02T00:05:12;8.80;95.30
33903;DHT22;20194;50.950;5.346;2024-03-02T00:07:44;8.70;96.60
33903;DHT22;20194;50.950;5.346;2024-03-02T00:10:13;8.60;97.00
33903;DHT22;20194;50.950;5.346;2024-03-02T00:12:40;8.50;97.70
33903;DHT22;20194;50.950;5.346;2024-03-02T00:17:55;8.40;98.20
33903;DHT22;20194;50.950;5.346;2024-03-02T00:20:24;8.50;97.80
33903;DHT22;20194;50.950;5.346;2024-03-02T00:22:59;8.50;97.50
33903;DHT22;20194;50.950;5.346;2024-03-02T00:25:34;8.50;97.20
33903;DHT22;20194;50.950;5.346;2024-03-02T00:28:01;8.50;97.00
33903;DHT22;20194;50.950;5.346;2024-03-02T00:33:25;8.40;97.00
33903;DHT22;20194;50.950;5.346;2024-03-02T00:35:51;8.40;97.20
33903;DHT22;20194;50.950;5.346;2024-03-02T00:38:17;8.50;97.00
33903;DHT22;20194;50.950;5.346;2024-03-02T00:40:44;8.60;96.50
33903;DHT22;20194;50.950;5.346;2024-03-02T00:45:54;8.70;95.40
33903;DHT22;20194;50.950;5.346;2024-03-02T00:48:19;8.70;95.30
33903;DHT22;20194;50.950;5.346;2024-03-02T00:50:52;8.70;94.80
33903;DHT22;20194;50.950;5.346;2024-03-02T00:53:22;8.80;95.00
33903;DHT22;20194;50.950;5.346;2024-03-02T00:55:50;8.80;94.70
33903;DHT22;20194;50.950;5.346;2024-03-02T00:58:15;8.80;94.30
33903;DHT22;20194;50.950;5.346;2024-03-02T01:00:41;8.80;94.10
33903;DHT22;20194;50.950;5.346;2024-03-02T01:03:07;8.80;93.70
33903;DHT22;20194;50.950;5.346;2024-03-02T01:05:33;8.80;93.70
33903;DHT22;20194;50.950;5.346;2024-03-02T01:07:59;8.70;93.80
33903;DHT22;20194;50.950;5.346;2024-03-02T01:10:24;8.80;94.10
33903;DHT22;20194;50.950;5.346;2024-03-02T01:12:51;8.70;94.10
33903;DHT22;20194;50.950;5.346;2024-03-02T01:15:17;8.80;93.80
33903;DHT22;20194;50.950;5.346;2024-03-02T01:17:43;8.80;93.60
33903;DHT22;20194;50.950;5.346;2024-03-02T01:20:09;8.80;93.30
33903;DHT22;20194;50.950;5.346;2024-03-02T01:22:35;8.80;93.40
33903;DHT22;20194;50.950;5.346;2024-03-02T01:25:01;8.80;93.00
33903;DHT22;20194;50.950;5.346;2024-03-02T01:27:27;8.60;93.30
33903;DHT22;20194;50.950;5.346;2024-03-02T01:29:53;8.60;93.70
33903;DHT22;20194;50.950;5.346;2024-03-02T01:32:20;8.60;93.70
33903;DHT22;20194;50.950;5.346;2024-03-02T01:34:45;8.50;94.10
33903;DHT22;20194;50.950;5.346;2024-03-02T01:37:11;8.50;93.70
33903;DHT22;20194;50.950;5.346;2024-03-02T01:39:37;8.50;93.80
33903;DHT22;20194;50.950;5.346;2024-03-02T01:42:03;8.60;93.20
33903;DHT22;20194;50.950;5.346;2024-03-02T01:44:28;8.70;92.10
33903;DHT22;20194;50.950;5.346;2024-03-02T01:46:54;8.60;92.20
33903;DHT22;20194;50.950;5.346;2024-03-02T01:49:20;8.60;92.20
33903;DHT22;20194;50.950;5.346;2024-03-02T01:51:45;8.60;92.10
33903;DHT22;20194;50.950;5.346;2024-03-02T01:54:12;8.60;92.40
33903;DHT22;20194;50.950;5.346;2024-03-02T01:56:37;8.50;92.70
33903;DHT22;20194;50.950;5.346;2024-03-02T01:59:03;8.60;92.90
33903;DHT22;20194;50.950;5.346;2024-03-02T02:01:29;8.60;93.00
33903;DHT22;20194;50.950;5.346;2024-03-02T02:03:56;8.70;92.50
33903;DHT22;20194;50.950;5.346;2024-03-02T02:06:22;8.80;92.60
33903;DHT22;20194;50.950;5.346;2024-03-02T02:08:48;8.90;92.20
33903;DHT22;20194;50.950;5.346;2024-03-02T02:11:17;9.00;91.60
33903;DHT22;20194;50.950;5.346;2024-03-02T02:13:42;8.90;91.30
33903;DHT22;20194;50.950;5.346;2024-03-02T02:16:08;8.80;92.20
33903;DHT22;20194;50.950;5.346;2024-03-02T02:18:34;8.70;91.80
33903;DHT22;20194;50.950;5.346;2024-03-02T02:21:02;8.70;92.60
33903;DHT22;20194;50.950;5.346;2024-03-02T02:23:28;8.50;92.80
33903;DHT22;20194;50.950;5.346;2024-03-02T02:25:53;8.40;93.00
33903;DHT22;20194;50.950;5.346;2024-03-02T02:28:19;8.40;93.60
33903;DHT22;20194;50.950;5.346;2024-03-02T02:30:44;8.40;92.80
33903;DHT22;20194;50.950;5.346;2024-03-02T02:33:11;8.30;92.80
33903;DHT22;20194;50.950;5.346;2024-03-02T02:35:36;8.30;92.30
33903;DHT22;20194;50.950;5.346;2024-03-02T02:38:03;8.30;92.00
33903;DHT22;20194;50.950;5.346;2024-03-02T02:40:28;8.30;92.10
33903;DHT22;20194;50.950;5.346;2024-03-02T02:42:58;8.30;91.80
33903;DHT22;20194;50.950;5.346;2024-03-02T02:45:24;8.30;92.20
33903;DHT22;20194;50.950;5.346;2024-03-02T02:47:50;8.20;91.90
33903;DHT22;20194;50.950;5.346;2024-03-02T02:50:16;8.20;92.00
33903;DHT22;20194;50.950;5.346;2024-03-02T02:52:43;8.20;91.80
33903;DHT22;20194;50.950;5.346;2024-03-02T02:55:10;8.20;91.60
33903;DHT22;20194;50.950;5.346;2024-03-02T02:57:37;8.30;91.90
33903;DHT22;20194;50.950;5.346;2024-03-02T03:00:11;8.40;91.70
33903;DHT22;20194;50.950;5.346;2024-03-02T03:02:48;8.30;91.40
33903;DHT22;20194;50.950;5.346;2024-03-02T03:05:15;8.20;91.80
33903;DHT22;20194;50.950;5.346;2024-03-02T03:07:41;8.10;91.90
33903;DHT22;20194;50.950;5.346;2024-03-02T03:10:07;8.10;92.20
33903;DHT22;20194;50.950;5.346;2024-03-02T03:12:34;8.20;92.30
33903;DHT22;20194;50.950;5.346;2024-03-02T03:15:01;8.20;92.60
33903;DHT22;20194;50.950;5.346;2024-03-02T03:17:28;8.10;91.60
33903;DHT22;20194;50.950;5.346;2024-03-02T03:19:54;8.20;92.30
33903;DHT22;20194;50.950;5.346;2024-03-02T03:22:20;8.20;92.40
33903;DHT22;20194;50.950;5.346;2024-03-02T03:24:45;8.30;92.00
33903;DHT22;20194;50.950;5.346;2024-03-02T03:27:11;8.20;91.80
33903;DHT22;20194;50.950;5.346;2024-03-02T03:29:37;8.20;92.60
33903;DHT22;20194;50.950;5.346;2024-03-02T03:32:03;8.20;92.40
33903;DHT22;20194;50.950;5.346;2024-03-02T03:34:32;8.20;92.40
33903;DHT22;20194;50.950;5.346;2024-03-02T03:36:58;8.10;93.10
33903;DHT22;20194;50.950;5.346;2024-03-02T03:39:24;8.10;92.90
33903;DHT22;20194;50.950;5.346;2024-03-02T03:41:50;8.10;93.10
33903;DHT22;20194;50.950;5.346;2024-03-02T03:44:16;8.20;93.20
33903;DHT22;20194;50.950;5.346;2024-03-02T03:46:42;8.10;92.40
33903;DHT22;20194;50.950;5.346;2024-03-02T03:49:07;8.20;92.90
33903;DHT22;20194;50.950;5.346;2024-03-02T03:51:33;8.20;92.70
33903;DHT22;20194;50.950;5.346;2024-03-02T03:54:00;8.10;92.40
33903;DHT22;20194;50.950;5.346;2024-03-02T03:56:26;8.20;92.20
33903;DHT22;20194;50.950;5.346;2024-03-02T03:58:52;8.10;92.80
33903;DHT22;20194;50.950;5.346;2024-03-02T04:01:18;8.20;92.60
33903;DHT22;20194;50.950;5.346;2024-03-02T04:03:44;8.30;92.80
33903;DHT22;20194;50.950;5.346;2024-03-02T04:06:10;8.20;92.30
33903;DHT22;20194;50.950;5.346;2024-03-02T04:08:36;8.20;92.40
33903;DHT22;20194;50.950;5.346;2024-03-02T04:11:01;8.20;92.80
33903;DHT22;20194;50.950;5.346;2024-03-02T04:13:28;8.10;92.40
33903;DHT22;20194;50.950;5.346;2024-03-02T04:15:53;8.10;92.20
33903;DHT22;20194;50.950;5.346;2024-03-02T04:18:19;8.10;92.00
33903;DHT22;20194;50.950;5.346;2024-03-02T04:20:45;8.30;92.10
33903;DHT22;20194;50.950;5.346;2024-03-02T04:23:11;8.10;91.80
33903;DHT22;20194;50.950;5.346;2024-03-02T04:25:37;8.10;91.70
33903;DHT22;20194;50.950;5.346;2024-03-02T04:28:02;8.10;91.80
33903;DHT22;20194;50.950;5.346;2024-03-02T04:30:28;8.00;92.00
33903;DHT22;20194;50.950;5.346;2024-03-02T04:32:54;7.90;92.20
33903;DHT22;20194;50.950;5.346;2024-03-02T04:35:20;7.90;92.40
33903;DHT22;20194;50.950;5.346;2024-03-02T04:37:46;7.90;92.30
33903;DHT22;20194;50.950;5.346;2024-03-02T04:40:12;7.80;92.10
33903;DHT22;20194;50.950;5.346;2024-03-02T04:42:38;7.90;92.70
33903;DHT22;20194;50.950;5.346;2024-03-02T04:45:04;7.90;92.50
33903;DHT22;20194;50.950;5.346;2024-03-02T04:47:29;8.00;91.80
33903;DHT22;20194;50.950;5.346;2024-03-02T04:49:55;7.90;91.90
33903;DHT22;20194;50.950;5.346;2024-03-02T04:52:21;7.90;91.80
33903;DHT22;20194;50.950;5.346;2024-03-02T04:54:46;7.90;92.40
33903;DHT22;20194;50.950;5.346;2024-03-02T04:57:38;7.90;92.30
33903;DHT22;20194;50.950;5.346;2024-03-02T05:00:04;7.90;92.50
33903;DHT22;20194;50.950;5.346;2024-03-02T05:02:33;8.00;92.30
33903;DHT22;20194;50.950;5.346;2024-03-02T05:04:58;7.90;91.80
33903;DHT22;20194;50.950;5.346;2024-03-02T05:07:24;7.90;92.10
33903;DHT22;20194;50.950;5.346;2024-03-02T05:09:49;7.90;91.80
33903;DHT22;20194;50.950;5.346;2024-03-02T05:12:15;7.90;91.60
33903;DHT22;20194;50.950;5.346;2024-03-02T05:14:41;7.80;91.90
33903;DHT22;20194;50.950;5.346;2024-03-02T05:17:06;7.70;92.30
33903;DHT22;20194;50.950;5.346;2024-03-02T05:19:32;7.70;92.70
33903;DHT22;20194;50.950;5.346;2024-03-02T05:21:58;7.70;92.70
33903;DHT22;20194;50.950;5.346;2024-03-02T05:24:23;7.70;92.60
33903;DHT22;20194;50.950;5.346;2024-03-02T05:26:49;7.80;92.40
33903;DHT22;20194;50.950;5.346;2024-03-02T05:29:15;7.80;91.90
33903;DHT22;20194;50.950;5.346;2024-03-02T05:31:40;7.80;92.20
33903;DHT22;20194;50.950;5.346;2024-03-02T05:34:06;7.90;91.30
33903;DHT22;20194;50.950;5.346;2024-03-02T05:36:31;7.80;91.30
33903;DHT22;20194;50.950;5.346;2024-03-02T05:38:57;7.70;91.80
33903;DHT22;20194;50.950;5.346;2024-03-02T05:41:23;7.70;92.00
33903;DHT22;20194;50.950;5.346;2024-03-02T05:43:48;7.80;92.20
33903;DHT22;20194;50.950;5.346;2024-03-02T05:46:15;7.70;91.80
33903;DHT22;20194;50.950;5.346;2024-03-02T05:48:40;7.70;91.80
33903;DHT22;20194;50.950;5.346;2024-03-02T05:51:06;7.60;92.50
33903;DHT22;20194;50.950;5.346;2024-03-02T05:53:32;7.60;92.80
33903;DHT22;20194;50.950;5.346;2024-03-02T05:55:59;7.70;92.50
33903;DHT22;20194;50.950;5.346;2024-03-02T05:58:24;7.70;92.80
33903;DHT22;20194;50.950;5.346;2024-03-02T06:00:53;7.70;92.60
33903;DHT22;20194;50.950;5.346;2024-03-02T06:03:20;7.70;92.30
33903;DHT22;20194;50.950;5.346;2024-03-02T06:05:45;7.70;92.30
33903;DHT22;20194;50.950;5.346;2024-03-02T06:08:11;7.60;92.50
33903;DHT22;20194;50.950;5.346;2024-03-02T06:10:36;7.60;93.20
33903;DHT22;20194;50.950;5.346;2024-03-02T06:13:02;7.60;93.30
33903;DHT22;20194;50.950;5.346;2024-03-02T06:15:28;7.80;92.60
33903;DHT22;20194;50.950;5.346;2024-03-02T06:17:54;7.70;92.30
33903;DHT22;20194;50.950;5.346;2024-03-02T06:20:19;7.70;92.20
33903;DHT22;20194;50.950;5.346;2024-03-02T06:22:45;7.60;92.70
33903;DHT22;20194;50.950;5.346;2024-03-02T06:25:11;7.50;92.90
33903;DHT22;20194;50.950;5.346;2024-03-02T06:27:37;7.50;93.20
33903;DHT22;20194;50.950;5.346;2024-03-02T06:30:03;7.50;93.00
33903;DHT22;20194;50.950;5.346;2024-03-02T06:32:29;7.50;93.00
33903;DHT22;20194;50.950;5.346;2024-03-02T06:34:55;7.50;92.90
33903;DHT22;20194;50.950;5.346;2024-03-02T06:37:21;7.50;93.00
33903;DHT22;20194;50.950;5.346;2024-03-02T06:39:46;7.60;92.80
33903;DHT22;20194;50.950;5.346;2024-03-02T06:42:12;7.60;92.80
33903;DHT22;20194;50.950;5.346;2024-03-02T06:44:38;7.50;92.80
33903;DHT22;20194;50.950;5.346;2024-03-02T06:47:04;7.50;92.00
33903;DHT22;20194;50.950;5.346;2024-03-02T06:49:30;7.50;92.30
33903;DHT22;20194;50.950;5.346;2024-03-02T06:51:55;7.50;92.50
33903;DHT22;20194;50.950;5.346;2024-03-02T06:54:21;7.50;93.00
33903;DHT22;20194;50.950;5.346;2024-03-02T06:56:47;7.60;92.00
33903;DHT22;20194;50.950;5.346;2024-03-02T06:59:13;7.70;91.90
33903;DHT22;20194;50.950;5.346;2024-03-02T07:01:39;7.70;91.20
33903;DHT22;20194;50.950;5.346;2024-03-02T07:04:05;7.70;91.30
33903;DHT22;20194;50.950;5.346;2024-03-02T07:06:32;7.70;91.50
33903;DHT22;20194;50.950;5.346;2024-03-02T07:08:57;7.60;91.50
33903;DHT22;20194;50.950;5.346;2024-03-02T07:11:23;7.70;91.80
33903;DHT22;20194;50.950;5.346;2024-03-02T07:13:49;7.80;91.40
33903;DHT22;20194;50.950;5.346;2024-03-02T07:16:15;7.80;91.60
33903;DHT22;20194;50.950;5.346;2024-03-02T07:18:54;7.80;91.30
33903;DHT22;20194;50.950;5.346;2024-03-02T07:21:21;7.80;91.80
33903;DHT22;20194;50.950;5.346;2024-03-02T07:23:49;7.90;91.60
33903;DHT22;20194;50.950;5.346;2024-03-02T07:26:16;8.00;92.20
33903;DHT22;20194;50.950;5.346;2024-03-02T07:28:44;8.00;91.00
33903;DHT22;20194;50.950;5.346;2024-03-02T07:31:09;7.90;91.30
33903;DHT22;20194;50.950;5.346;2024-03-02T07:33:35;7.80;91.90
33903;DHT22;20194;50.950;5.346;2024-03-02T07:36:01;7.90;91.70
33903;DHT22;20194;50.950;5.346;2024-03-02T07:38:28;7.90;91.70
33903;DHT22;20194;50.950;5.346;2024-03-02T07:40:55;8.00;91.30
33903;DHT22;20194;50.950;5.346;2024-03-02T07:43:21;7.90;91.30
33903;DHT22;20194;50.950;5.346;2024-03-02T07:45:47;7.80;91.70
33903;DHT22;20194;50.950;5.346;2024-03-02T07:48:13;7.80;92.30
33903;DHT22;20194;50.950;5.346;2024-03-02T07:50:39;7.70;92.30
33903;DHT22;20194;50.950;5.346;2024-03-02T07:53:05;7.80;92.60
33903;DHT22;20194;50.950;5.346;2024-03-02T07:55:33;8.10;92.50
33903;DHT22;20194;50.950;5.346;2024-03-02T07:57:58;8.40;91.40
33903;DHT22;20194;50.950;5.346;2024-03-02T08:00:25;8.70;89.50
33903;DHT22;20194;50.950;5.346;2024-03-02T08:02:51;8.80;87.90
33903;DHT22;20194;50.950;5.346;2024-03-02T08:05:17;8.90;85.50
33903;DHT22;20194;50.950;5.346;2024-03-02T08:07:45;9.10;84.40
33903;DHT22;20194;50.950;5.346;2024-03-02T08:10:11;9.10;84.10
33903;DHT22;20194;50.950;5.346;2024-03-02T08:12:37;9.20;82.20
33903;DHT22;20194;50.950;5.346;2024-03-02T08:15:03;9.30;81.20
33903;DHT22;20194;50.950;5.346;2024-03-02T08:17:29;9.60;80.70
33903;DHT22;20194;50.950;5.346;2024-03-02T08:19:55;9.60;78.90
33903;DHT22;20194;50.950;5.346;2024-03-02T08:22:22;9.50;77.60
33903;DHT22;20194;50.950;5.346;2024-03-02T08:24:48;9.60;79.30
33903;DHT22;20194;50.950;5.346;2024-03-02T08:27:14;9.70;79.30
33903;DHT22;20194;50.950;5.346;2024-03-02T08:29:40;9.70;77.60
33903;DHT22;20194;50.950;5.346;2024-03-02T08:32:07;9.70;79.10
33903;DHT22;20194;50.950;5.346;2024-03-02T08:34:33;9.50;79.10
33903;DHT22;20194;50.950;5.346;2024-03-02T08:37:04;9.70;80.60
33903;DHT22;20194;50.950;5.346;2024-03-02T08:39:30;9.70;78.60
33903;DHT22;20194;50.950;5.346;2024-03-02T08:41:56;9.80;77.40
33903;DHT22;20194;50.950;5.346;2024-03-02T08:44:22;9.70;73.10
33903;DHT22;20194;50.950;5.346;2024-03-02T08:46:47;9.80;77.00
33903;DHT22;20194;50.950;5.346;2024-03-02T08:49:13;10.00;75.10
33903;DHT22;20194;50.950;5.346;2024-03-02T08:51:39;10.10;73.10
33903;DHT22;20194;50.950;5.346;2024-03-02T08:54:05;10.40;72.60
33903;DHT22;20194;50.950;5.346;2024-03-02T08:56:31;10.50;68.80
33903;DHT22;20194;50.950;5.346;2024-03-02T08:58:57;10.40;63.40
33903;DHT22;20194;50.950;5.346;2024-03-02T09:01:23;10.30;67.50
33903;DHT22;20194;50.950;5.346;2024-03-02T09:03:49;10.40;68.50
33903;DHT22;20194;50.950;5.346;2024-03-02T09:06:15;10.50;67.50
33903;DHT22;20194;50.950;5.346;2024-03-02T09:08:43;10.70;63.10
33903;DHT22;20194;50.950;5.346;2024-03-02T09:11:10;10.70;62.60
33903;DHT22;20194;50.950;5.346;2024-03-02T09:13:36;10.80;61.00
33903;DHT22;20194;50.950;5.346;2024-03-02T09:16:03;10.90;55.40
33903;DHT22;20194;50.950;5.346;2024-03-02T09:18:29;10.70;58.20
33903;DHT22;20194;50.950;5.346;2024-03-02T09:20:55;10.70;58.70
33903;DHT22;20194;50.950;5.346;2024-03-02T09:23:21;10.70;57.40
33903;DHT22;20194;50.950;5.346;2024-03-02T09:25:46;10.90;56.00
33903;DHT22;20194;50.950;5.346;2024-03-02T09:28:12;11.00;55.80
33903;DHT22;20194;50.950;5.346;2024-03-02T09:30:38;11.20;55.40
33903;DHT22;20194;50.950;5.346;2024-03-02T09:33:04;11.10;52.60
33903;DHT22;20194;50.950;5.346;2024-03-02T09:35:30;11.10;54.20
33903;DHT22;20194;50.950;5.346;2024-03-02T09:37:55;11.50;55.10
33903;DHT22;20194;50.950;5.346;2024-03-02T09:40:24;11.60;48.20
33903;DHT22;20194;50.950;5.346;2024-03-02T09:42:51;11.70;47.50
33903;DHT22;20194;50.950;5.346;2024-03-02T09:45:26;11.60;44.40
33903;DHT22;20194;50.950;5.346;2024-03-02T09:47:52;11.50;48.90
33903;DHT22;20194;50.950;5.346;2024-03-02T09:50:17;11.50;50.50
33903;DHT22;20194;50.950;5.346;2024-03-02T09:52:43;11.40;51.30
33903;DHT22;20194;50.950;5.346;2024-03-02T09:55:09;11.30;49.30
33903;DHT22;20194;50.950;5.346;2024-03-02T09:57:37;11.10;53.40
33903;DHT22;20194;50.950;5.346;2024-03-02T10:00:03;11.00;53.30
33903;DHT22;20194;50.950;5.346;2024-03-02T10:02:28;11.20;55.20
33903;DHT22;20194;50.950;5.346;2024-03-02T10:04:54;11.30;54.50
33903;DHT22;20194;50.950;5.346;2024-03-02T10:07:20;11.40;52.60
33903;DHT22;20194;50.950;5.346;2024-03-02T10:09:48;11.50;51.50
33903;DHT22;20194;50.950;5.346;2024-03-02T10:12:15;11.30;50.00
33903;DHT22;20194;50.950;5.346;2024-03-02T10:14:42;11.40;51.60
33903;DHT22;20194;50.950;5.346;2024-03-02T10:17:08;11.40;48.30
33903;DHT22;20194;50.950;5.346;2024-03-02T10:19:35;11.50;50.80
33903;DHT22;20194;50.950;5.346;2024-03-02T10:22:04;11.60;50.40
33903;DHT22;20194;50.950;5.346;2024-03-02T10:24:42;11.60;52.40
33903;DHT22;20194;50.950;5.346;2024-03-02T10:27:16;11.50;49.80
33903;DHT22;20194;50.950;5.346;2024-03-02T10:29:42;11.40;49.90
33903;DHT22;20194;50.950;5.346;2024-03-02T10:32:11;11.50;53.80
33903;DHT22;20194;50.950;5.346;2024-03-02T10:34:37;11.40;49.10
33903;DHT22;20194;50.950;5.346;2024-03-02T10:37:06;11.40;50.10
33903;DHT22;20194;50.950;5.346;2024-03-02T10:39:34;11.40;44.50
33903;DHT22;20194;50.950;5.346;2024-03-02T10:42:02;11.40;45.10
33903;DHT22;20194;50.950;5.346;2024-03-02T10:44:29;11.50;44.10
33903;DHT22;20194;50.950;5.346;2024-03-02T10:46:56;11.50;42.60
33903;DHT22;20194;50.950;5.346;2024-03-02T10:49:23;11.70;45.80
33903;DHT22;20194;50.950;5.346;2024-03-02T10:51:51;12.00;44.20
33903;DHT22;20194;50.950;5.346;2024-03-02T10:54:17;12.10;38.60
33903;DHT22;20194;50.950;5.346;2024-03-02T10:56:44;12.20;39.10
33903;DHT22;20194;50.950;5.346;2024-03-02T11:01:48;12.40;29.30
33903;DHT22;20194;50.950;5.346;2024-03-02T11:04:17;12.20;28.10
33903;DHT22;20194;50.950;5.346;2024-03-02T11:06:50;12.30;30.90
33903;DHT22;20194;50.950;5.346;2024-03-02T11:09:21;12.50;32.30
33903;DHT22;20194;50.950;5.346;2024-03-02T11:11:56;12.60;31.10
33903;DHT22;20194;50.950;5.346;2024-03-02T11:14:27;12.90;27.40
33903;DHT22;20194;50.950;5.346;2024-03-02T11:16:55;13.10;23.90
33903;DHT22;20194;50.950;5.346;2024-03-02T11:19:21;13.30;17.10
33903;DHT22;20194;50.950;5.346;2024-03-02T11:21:48;13.50;19.40
33903;DHT22;20194;50.950;5.346;2024-03-02T11:27:05;13.70;14.60
33903;DHT22;20194;50.950;5.346;2024-03-02T11:34:42;13.60;8.30
33903;DHT22;20194;50.950;5.346;2024-03-02T11:37:16;13.50;5.70
33903;DHT22;20194;50.950;5.346;2024-03-02T11:39:45;13.60;9.30
33903;DHT22;20194;50.950;5.346;2024-03-02T11:42:12;13.60;10.80
33903;DHT22;20194;50.950;5.346;2024-03-02T11:44:44;13.50;4.60
33903;DHT22;20194;50.950;5.346;2024-03-02T11:47:12;13.50;9.00
33903;DHT22;20194;50.950;5.346;2024-03-02T11:49:44;13.40;5.20
33903;DHT22;20194;50.950;5.346;2024-03-02T11:52:14;13.60;11.50
33903;DHT22;20194;50.950;5.346;2024-03-02T11:54:47;13.60;6.20
33903;DHT22;20194;50.950;5.346;2024-03-02T11:57:15;13.60;6.80
33903;DHT22;20194;50.950;5.346;2024-03-02T11:59:42;13.50;6.30
33903;DHT22;20194;50.950;5.346;2024-03-02T12:02:15;13.50;8.80
33903;DHT22;20194;50.950;5.346;2024-03-02T12:04:42;13.50;7.90
33903;DHT22;20194;50.950;5.346;2024-03-02T12:07:09;13.60;9.00
33903;DHT22;20194;50.950;5.346;2024-03-02T12:09:35;13.60;6.30
33903;DHT22;20194;50.950;5.346;2024-03-02T12:12:06;13.80;7.30
33903;DHT22;20194;50.950;5.346;2024-03-02T12:14:34;13.60;3.00
33903;DHT22;20194;50.950;5.346;2024-03-02T12:17:01;13.60;8.00
33903;DHT22;20194;50.950;5.346;2024-03-02T12:19:27;13.60;7.60
33903;DHT22;20194;50.950;5.346;2024-03-02T12:21:56;13.60;7.50
33903;DHT22;20194;50.950;5.346;2024-03-02T12:24:21;13.70;7.40
33903;DHT22;20194;50.950;5.346;2024-03-02T12:26:51;13.70;7.10
33903;DHT22;20194;50.950;5.346;2024-03-02T12:29:19;13.80;7.10
33903;DHT22;20194;50.950;5.346;2024-03-02T12:31:45;14.10;8.20
33903;DHT22;20194;50.950;5.346;2024-03-02T12:34:13;14.10;2.70
33903;DHT22;20194;50.950;5.346;2024-03-02T12:36:39;14.20;5.50
33903;DHT22;20194;50.950;5.346;2024-03-02T12:39:10;14.40;10.60
33903;DHT22;20194;50.950;5.346;2024-03-02T12:41:38;14.30;1.00
33903;DHT22;20194;50.950;5.346;2024-03-02T12:44:05;14.20;1.00
33903;DHT22;20194;50.950;5.346;2024-03-02T12:46:32;14.20;7.00
33903;DHT22;20194;50.950;5.346;2024-03-02T12:48:58;14.20;5.10
33903;DHT22;20194;50.950;5.346;2024-03-02T12:51:30;14.20;7.30
33903;DHT22;20194;50.950;5.346;2024-03-02T12:53:57;14.40;11.60
33903;DHT22;20194;50.950;5.346;2024-03-02T12:56:24;14.40;1.00
33903;DHT22;20194;50.950;5.346;2024-03-02T12:58:56;14.30;1.00
33903;DHT22;20194;50.950;5.346;2024-03-02T13:01:23;14.20;2.70
33903;DHT22;20194;50.950;5.346;2024-03-02T13:03:50;14.10;10.50
33903;DHT22;20194;50.950;5.346;2024-03-02T13:06:19;14.10;11.20
33903;DHT22;20194;50.950;5.346;2024-03-02T13:08:45;14.10;13.00
33903;DHT22;20194;50.950;5.346;2024-03-02T13:11:12;14.10;7.30
33903;DHT22;20194;50.950;5.346;2024-03-02T13:13:41;14.20;10.60
33903;DHT22;20194;50.950;5.346;2024-03-02T13:16:10;14.30;3.90
33903;DHT22;20194;50.950;5.346;2024-03-02T13:18:37;14.30;6.80
33903;DHT22;20194;50.950;5.346;2024-03-02T13:21:03;14.30;14.40
33903;DHT22;20194;50.950;5.346;2024-03-02T13:23:29;14.30;11.70
33903;DHT22;20194;50.950;5.346;2024-03-02T13:25:57;14.20;9.20
33903;DHT22;20194;50.950;5.346;2024-03-02T13:28:24;14.10;8.20
33903;DHT22;20194;50.950;5.346;2024-03-02T13:30:49;14.20;10.50
33903;DHT22;20194;50.950;5.346;2024-03-02T13:33:15;14.30;11.40
33903;DHT22;20194;50.950;5.346;2024-03-02T13:35:41;14.30;10.40
33903;DHT22;20194;50.950;5.346;2024-03-02T13:38:06;14.40;11.30
33903;DHT22;20194;50.950;5.346;2024-03-02T13:40:32;14.30;5.50
33903;DHT22;20194;50.950;5.346;2024-03-02T13:43:02;14.30;6.60
33903;DHT22;20194;50.950;5.346;2024-03-02T13:45:28;14.40;7.70
33903;DHT22;20194;50.950;5.346;2024-03-02T13:47:54;14.30;8.50
33903;DHT22;20194;50.950;5.346;2024-03-02T13:50:19;14.30;11.40
33903;DHT22;20194;50.950;5.346;2024-03-02T13:52:45;14.20;10.10
33903;DHT22;20194;50.950;5.346;2024-03-02T13:55:12;14.10;13.50
33903;DHT22;20194;50.950;5.346;2024-03-02T13:57:37;14.20;20.50
33903;DHT22;20194;50.950;5.346;2024-03-02T14:00:04;14.20;19.80
33903;DHT22;20194;50.950;5.346;2024-03-02T14:02:35;14.40;16.60
33903;DHT22;20194;50.950;5.346;2024-03-02T14:05:01;14.40;20.30
33903;DHT22;20194;50.950;5.346;2024-03-02T14:07:27;14.40;17.20
33903;DHT22;20194;50.950;5.346;2024-03-02T14:09:53;14.30;19.00
33903;DHT22;20194;50.950;5.346;2024-03-02T14:12:18;14.30;21.20
33903;DHT22;20194;50.950;5.346;2024-03-02T14:14:44;14.30;24.20
33903;DHT22;20194;50.950;5.346;2024-03-02T14:17:10;14.40;15.90
33903;DHT22;20194;50.950;5.346;2024-03-02T14:19:40;14.40;14.50
33903;DHT22;20194;50.950;5.346;2024-03-02T14:22:06;14.30;19.10
33903;DHT22;20194;50.950;5.346;2024-03-02T14:24:31;14.40;18.10
33903;DHT22;20194;50.950;5.346;2024-03-02T14:26:57;14.40;18.80
33903;DHT22;20194;50.950;5.346;2024-03-02T14:29:24;14.10;19.50
33903;DHT22;20194;50.950;5.346;2024-03-02T14:31:50;14.00;21.50
33903;DHT22;20194;50.950;5.346;2024-03-02T14:34:16;14.00;22.70
33903;DHT22;20194;50.950;5.346;2024-03-02T14:36:42;14.10;25.90
33903;DHT22;20194;50.950;5.346;2024-03-02T14:39:11;14.20;19.80
33903;DHT22;20194;50.950;5.346;2024-03-02T14:41:37;14.30;25.30
33903;DHT22;20194;50.950;5.346;2024-03-02T14:44:03;14.20;27.40
33903;DHT22;20194;50.950;5.346;2024-03-02T14:46:30;14.30;32.90
33903;DHT22;20194;50.950;5.346;2024-03-02T14:48:55;14.20;23.60
33903;DHT22;20194;50.950;5.346;2024-03-02T14:51:21;14.10;26.20
33903;DHT22;20194;50.950;5.346;2024-03-02T14:53:47;14.10;30.60
33903;DHT22;20194;50.950;5.346;2024-03-02T14:56:12;13.90;24.90
33903;DHT22;20194;50.950;5.346;2024-03-02T14:58:39;14.00;24.90
33903;DHT22;20194;50.950;5.346;2024-03-02T15:01:05;14.00;24.10
33903;DHT22;20194;50.950;5.346;2024-03-02T15:03:32;14.00;27.20
33903;DHT22;20194;50.950;5.346;2024-03-02T15:05:58;14.00;25.40
33903;DHT22;20194;50.950;5.346;2024-03-02T15:08:24;14.00;22.60
33903;DHT22;20194;50.950;5.346;2024-03-02T15:10:50;13.90;21.90
33903;DHT22;20194;50.950;5.346;2024-03-02T15:13:16;13.90;22.20
33903;DHT22;20194;50.950;5.346;2024-03-02T15:15:42;13.90;26.30
33903;DHT22;20194;50.950;5.346;2024-03-02T15:18:07;13.90;29.20
33903;DHT22;20194;50.950;5.346;2024-03-02T15:20:34;13.90;28.80
33903;DHT22;20194;50.950;5.346;2024-03-02T15:23:00;13.90;27.00
33903;DHT22;20194;50.950;5.346;2024-03-02T15:25:25;13.90;29.00
33903;DHT22;20194;50.950;5.346;2024-03-02T15:27:51;13.90;33.20
33903;DHT22;20194;50.950;5.346;2024-03-02T15:30:17;13.80;29.50
33903;DHT22;20194;50.950;5.346;2024-03-02T15:32:43;13.80;34.40
33903;DHT22;20194;50.950;5.346;2024-03-02T15:35:08;13.80;32.10
33903;DHT22;20194;50.950;5.346;2024-03-02T15:37:34;13.80;35.70
33903;DHT22;20194;50.950;5.346;2024-03-02T15:40:00;13.80;30.20
33903;DHT22;20194;50.950;5.346;2024-03-02T15:42:32;13.80;30.80
33903;DHT22;20194;50.950;5.346;2024-03-02T15:44:58;13.70;34.20
33903;DHT22;20194;50.950;5.346;2024-03-02T15:47:23;13.70;29.80
33903;DHT22;20194;50.950;5.346;2024-03-02T15:49:49;13.70;30.60
33903;DHT22;20194;50.950;5.346;2024-03-02T15:52:15;13.70;34.20
33903;DHT22;20194;50.950;5.346;2024-03-02T15:54:44;13.70;39.60